Time;durP1;ratioP1;P1;durP2;ratioP2;P2;SDS_P1;SDS_P2;PMS_P1;PMS_P2;Temp;Humidity;BMP_temperature;BMP_pressure;BME280_temperature;BME280_humidity;BME280_pressure;Samples;Min_cycle;Max_cycle;Signal;HPM_P1;HPM_P2
2021/05/05 00:00:16;;;;;;;1.45;0.80;;;7.20;99.90;;;;;;5026891;28;20234;-82
2021/05/05 00:02:45;;;;;;;0.75;0.75;;;7.20;99.90;;;;;;5035848;28;20195;-82
2021/05/05 00:05:14;;;;;;;0.60;0.60;;;7.20;99.90;;;;;;5083110;28;20225;-82
2021/05/05 00:07:41;;;;;;;0.80;0.80;;;7.10;99.90;;;;;;5098478;28;20258;-83
2021/05/05 00:10:10;;;;;;;0.77;0.77;;;7.10;99.90;;;;;;5098294;28;20204;-83
2021/05/05 00:12:37;;;;;;;0.88;0.80;;;7.20;99.90;;;;;;5097840;28;20204;-82
2021/05/05 00:15:04;;;;;;;0.80;0.75;;;7.20;99.90;;;;;;5098075;28;20232;-83
2021/05/05 00:17:31;;;;;;;1.17;1.08;;;7.20;99.90;;;;;;5097571;28;20215;-84
2021/05/05 00:19:58;;;;;;;0.90;0.90;;;7.20;99.90;;;;;;5098466;28;20253;-83
2021/05/05 00:22:24;;;;;;;0.80;0.60;;;7.20;99.90;;;;;;5098081;28;20235;-82
2021/05/05 00:24:50;;;;;;;0.90;0.90;;;7.20;99.90;;;;;;5097294;28;20224;-83
2021/05/05 00:27:17;;;;;;;0.65;0.65;;;7.20;99.90;;;;;;5097843;28;20223;-83
2021/05/05 00:29:43;;;;;;;0.85;0.85;;;7.20;99.90;;;;;;5097992;28;20253;-83
2021/05/05 00:32:09;;;;;;;0.80;0.80;;;7.10;99.90;;;;;;5098083;28;20208;-83
2021/05/05 00:34:36;;;;;;;1.60;0.80;;;7.20;99.90;;;;;;5097495;28;20224;-82
2021/05/05 00:37:03;;;;;;;0.70;0.70;;;7.20;99.90;;;;;;5098118;28;20264;-82
2021/05/05 00:39:29;;;;;;;0.93;0.90;;;7.10;99.90;;;;;;5098707;28;20231;-83
2021/05/05 00:41:55;;;;;;;3.00;1.38;;;7.00;99.90;;;;;;5099436;28;20311;-84
2021/05/05 00:44:23;;;;;;;0.70;0.70;;;6.90;99.90;;;;;;5099669;28;20239;-84
2021/05/05 00:46:50;;;;;;;1.52;1.10;;;6.90;99.90;;;;;;5100398;28;20261;-84
2021/05/05 00:49:16;;;;;;;0.73;0.70;;;6.90;99.90;;;;;;5099790;28;20200;-84
2021/05/05 00:51:43;;;;;;;0.63;0.63;;;7.00;99.90;;;;;;5100420;28;20229;-83
2021/05/05 00:54:10;;;;;;;1.15;1.10;;;7.00;99.90;;;;;;5101366;28;20323;-84
2021/05/05 00:56:37;;;;;;;1.50;1.40;;;6.90;99.90;;;;;;5101170;28;20211;-82
2021/05/05 00:59:03;;;;;;;3.20;1.67;;;6.80;99.90;;;;;;5100959;28;20248;-83
2021/05/05 01:01:30;;;;;;;1.27;1.17;;;6.70;99.90;;;;;;5101029;28;20594;-84
2021/05/05 01:03:56;;;;;;;1.27;1.17;;;6.70;99.90;;;;;;5100761;28;20293;-83
2021/05/05 01:06:22;;;;;;;1.20;1.10;;;6.80;99.90;;;;;;5100898;28;20208;-83
2021/05/05 01:08:50;;;;;;;4.00;2.55;;;6.80;99.90;;;;;;5100776;28;20204;-83
2021/05/05 01:11:16;;;;;;;1.27;1.17;;;6.90;99.90;;;;;;5100080;28;20226;-84
2021/05/05 01:13:42;;;;;;;1.25;0.90;;;7.00;99.90;;;;;;5104228;28;20234;-80
2021/05/05 01:16:09;;;;;;;1.23;1.15;;;7.00;99.90;;;;;;5103311;28;20616;-81
2021/05/05 01:18:35;;;;;;;1.60;1.45;;;7.00;99.90;;;;;;5102910;28;20260;-80
2021/05/05 01:21:03;;;;;;;1.80;1.20;;;7.00;99.90;;;;;;5100571;28;20211;-82
2021/05/05 01:23:29;;;;;;;1.98;1.88;;;7.10;99.90;;;;;;5098986;28;20222;-84
2021/05/05 01:25:55;;;;;;;2.28;1.23;;;7.20;99.90;;;;;;5099850;28;20208;-84
2021/05/05 01:28:23;;;;;;;1.45;1.30;;;7.20;99.90;;;;;;5099270;28;20204;-82
2021/05/05 01:30:49;;;;;;;0.80;0.80;;;7.30;99.90;;;;;;5099501;28;20637;-83
2021/05/05 01:33:16;;;;;;;2.70;2.03;;;7.30;99.90;;;;;;5098970;28;20248;-83
2021/05/05 01:35:44;;;;;;;1.67;1.58;;;7.40;99.90;;;;;;5099132;28;20650;-83
2021/05/05 01:38:11;;;;;;;1.65;0.70;;;7.50;99.90;;;;;;5097786;28;20208;-83
2021/05/05 01:40:38;;;;;;;3.83;1.90;;;7.50;99.90;;;;;;5097718;28;20228;-83
2021/05/05 01:43:06;;;;;;;3.28;1.42;;;7.50;99.90;;;;;;5098142;28;20200;-83
2021/05/05 01:45:33;;;;;;;1.67;1.40;;;7.60;99.90;;;;;;5097758;28;20200;-83
2021/05/05 01:48:01;;;;;;;1.30;1.20;;;7.60;99.90;;;;;;5097101;28;20218;-83
2021/05/05 01:50:28;;;;;;;1.70;1.50;;;7.60;99.90;;;;;;5098326;28;20261;-84
2021/05/05 01:52:54;;;;;;;1.02;1.00;;;7.60;99.90;;;;;;5098327;28;20216;-83
2021/05/05 01:55:21;;;;;;;1.73;1.20;;;7.70;99.90;;;;;;5098281;28;20211;-83
2021/05/05 01:57:48;;;;;;;1.10;1.10;;;7.70;99.90;;;;;;5097643;28;20560;-83
2021/05/05 02:00:16;;;;;;;1.65;1.10;;;7.70;99.90;;;;;;5097574;28;20641;-82
2021/05/05 02:02:43;;;;;;;1.10;1.08;;;7.70;99.90;;;;;;5097643;28;20208;-82
2021/05/05 02:05:10;;;;;;;2.28;1.30;;;7.70;99.90;;;;;;5096637;28;20220;-83
2021/05/05 02:07:37;;;;;;;2.60;1.13;;;7.70;99.90;;;;;;5097875;28;20700;-81
2021/05/05 02:10:05;;;;;;;4.13;1.58;;;7.70;99.90;;;;;;5097587;28;20208;-83
2021/05/05 02:12:32;;;;;;;1.58;1.27;;;7.70;99.90;;;;;;5098606;28;20204;-83
2021/05/05 02:14:58;;;;;;;2.45;1.00;;;7.70;99.90;;;;;;5098522;28;20234;-83
2021/05/05 02:17:25;;;;;;;1.45;1.30;;;7.70;99.90;;;;;;5099064;28;20200;-81
2021/05/05 02:19:51;;;;;;;1.42;1.10;;;7.70;99.90;;;;;;5097742;28;20226;-82
2021/05/05 02:22:17;;;;;;;0.80;0.73;;;7.70;99.90;;;;;;5096827;28;20215;-83
2021/05/05 02:24:44;;;;;;;1.30;0.88;;;7.70;99.90;;;;;;5097285;28;20231;-83
2021/05/05 02:27:10;;;;;;;1.40;1.30;;;7.70;99.90;;;;;;5098920;28;20203;-83
2021/05/05 02:29:37;;;;;;;1.40;1.30;;;7.70;99.90;;;;;;5098630;28;20295;-83
2021/05/05 02:32:08;;;;;;;1.52;0.98;;;7.70;99.90;;;;;;5097911;28;20214;-83
2021/05/05 02:34:36;;;;;;;1.30;1.20;;;7.70;99.90;;;;;;5098774;28;20220;-83
2021/05/05 02:37:05;;;;;;;2.25;1.40;;;7.70;99.90;;;;;;5098657;28;20643;-83
2021/05/05 02:39:31;;;;;;;1.50;1.38;;;7.70;99.90;;;;;;5097749;28;20724;-83
2021/05/05 02:41:58;;;;;;;1.80;1.70;;;7.80;99.90;;;;;;5097877;28;20208;-84
2021/05/05 02:44:24;;;;;;;1.38;1.20;;;7.80;99.90;;;;;;5097811;28;20236;-82
2021/05/05 02:46:51;;;;;;;2.10;0.95;;;7.80;99.90;;;;;;5097146;28;20231;-83
2021/05/05 02:49:18;;;;;;;1.20;1.10;;;7.80;99.90;;;;;;5096809;28;20207;-83
2021/05/05 02:51:44;;;;;;;1.10;0.98;;;7.80;99.90;;;;;;5096643;28;20207;-83
2021/05/05 02:54:10;;;;;;;1.38;1.20;;;7.80;99.90;;;;;;5097154;28;20273;-83
2021/05/05 02:56:36;;;;;;;1.02;0.90;;;7.80;99.90;;;;;;5097764;28;20208;-82
2021/05/05 02:59:03;;;;;;;0.93;0.90;;;7.80;99.90;;;;;;5098278;28;20231;-83
2021/05/05 03:01:29;;;;;;;1.10;1.00;;;7.70;99.90;;;;;;5100749;28;20212;-83
2021/05/05 03:03:56;;;;;;;1.35;1.25;;;7.70;99.90;;;;;;5100998;28;20779;-83
2021/05/05 03:06:23;;;;;;;1.08;0.90;;;7.70;99.90;;;;;;5100859;28;20298;-83
2021/05/05 03:08:49;;;;;;;2.85;1.30;;;7.70;99.90;;;;;;5100570;28;20229;-82
2021/05/05 03:11:16;;;;;;;1.67;1.00;;;7.60;99.90;;;;;;5101267;28;20208;-83
2021/05/05 03:13:42;;;;;;;2.03;1.23;;;7.60;99.90;;;;;;5101427;28;20228;-82
2021/05/05 03:16:08;;;;;;;1.48;1.05;;;7.60;99.90;;;;;;5101020;28;20230;-83
2021/05/05 03:18:35;;;;;;;1.58;1.05;;;7.60;99.90;;;;;;5100798;28;20261;-83
2021/05/05 03:21:02;;;;;;;1.52;1.10;;;7.60;99.90;;;;;;5100956;28;20234;-82
2021/05/05 03:23:28;;;;;;;1.38;0.90;;;7.70;99.90;;;;;;5100737;28;20228;-83
2021/05/05 03:25:54;;;;;;;0.82;0.82;;;7.70;99.90;;;;;;5101176;28;20234;-83
2021/05/05 03:28:21;;;;;;;1.00;1.00;;;7.70;99.90;;;;;;5101551;28;20211;-83
2021/05/05 03:30:47;;;;;;;1.00;0.80;;;7.70;99.90;;;;;;5101786;28;20226;-83
2021/05/05 03:33:14;;;;;;;3.67;1.08;;;7.70;99.90;;;;;;5101397;28;20598;-83
2021/05/05 03:35:40;;;;;;;0.77;0.77;;;7.70;99.90;;;;;;5101611;28;20204;-81
2021/05/05 03:38:07;;;;;;;1.00;1.00;;;7.70;99.90;;;;;;5101013;28;20240;-82
2021/05/05 03:40:34;;;;;;;1.63;0.98;;;7.70;99.90;;;;;;5100975;28;20224;-82
2021/05/05 03:43:01;;;;;;;1.13;1.13;;;7.70;99.90;;;;;;5101017;28;20221;-83
2021/05/05 03:45:27;;;;;;;1.30;1.20;;;7.70;99.90;;;;;;5100342;28;20218;-82
2021/05/05 03:47:53;;;;;;;1.45;1.35;;;7.70;99.90;;;;;;5100974;28;20541;-83
2021/05/05 03:50:22;;;;;;;1.30;1.20;;;7.70;99.90;;;;;;5100948;28;20230;-82
2021/05/05 03:52:48;;;;;;;1.10;1.10;;;7.70;99.90;;;;;;5099683;28;20222;-82
2021/05/05 03:55:17;;;;;;;1.15;1.05;;;7.70;99.90;;;;;;5100807;28;20227;-83
2021/05/05 03:57:44;;;;;;;1.85;1.75;;;7.60;99.90;;;;;;5101139;28;20204;-83
2021/05/05 04:00:11;;;;;;;2.25;1.15;;;7.50;99.90;;;;;;5101185;28;20632;-83
2021/05/05 04:02:37;;;;;;;2.00;1.00;;;7.50;99.90;;;;;;5100461;28;20214;-83
2021/05/05 04:05:07;;;;;;;3.40;1.50;;;7.50;99.90;;;;;;5101129;28;20229;-83
2021/05/05 04:07:33;;;;;;;5.18;1.30;;;7.50;99.90;;;;;;5100918;28;20729;-83
2021/05/05 04:10:00;;;;;;;1.08;1.08;;;7.40;99.90;;;;;;5101349;28;20204;-82
2021/05/05 04:12:29;;;;;;;0.95;0.93;;;7.30;99.90;;;;;;5101235;28;20214;-83
2021/05/05 04:14:55;;;;;;;5.22;0.95;;;7.20;99.90;;;;;;5101505;28;20248;-84
2021/05/05 04:17:22;;;;;;;1.00;1.00;;;7.20;99.90;;;;;;5101681;28;20215;-83
2021/05/05 04:19:48;;;;;;;1.35;1.25;;;7.10;99.90;;;;;;5102161;28;20224;-82
2021/05/05 04:22:15;;;;;;;1.30;1.20;;;7.00;99.90;;;;;;5101915;28;20219;-83
2021/05/05 04:24:41;;;;;;;0.80;0.80;;;7.00;99.90;;;;;;5101706;28;20277;-83
2021/05/05 04:27:18;;;;;;;;;;;;;;;;;;;;;
2021/05/05 04:40:05;;;;;;;;;;;;;;;;;;;;;
2021/05/05 04:46:53;;;;;;;2.38;0.85;;;7.00;99.90;;;;;;4868128;29;20215;-83
2021/05/05 04:49:19;;;;;;;1.45;0.90;;;7.00;99.90;;;;;;4977027;28;20216;-83
2021/05/05 04:51:45;;;;;;;2.15;1.10;;;7.10;99.90;;;;;;5046444;28;20262;-83
2021/05/05 04:54:11;;;;;;;1.67;0.80;;;7.10;99.90;;;;;;5100893;28;20236;-83
2021/05/05 04:56:38;;;;;;;1.15;1.15;;;7.10;99.90;;;;;;5101107;28;20849;-83
2021/05/05 04:59:04;;;;;;;1.38;1.20;;;7.10;99.90;;;;;;5100615;28;20290;-81
2021/05/05 05:01:31;;;;;;;1.35;0.80;;;7.10;99.90;;;;;;5100764;28;20212;-82
2021/05/05 05:03:58;;;;;;;1.70;1.02;;;7.10;99.90;;;;;;5100201;28;20234;-82
2021/05/05 05:06:24;;;;;;;1.85;1.15;;;7.10;99.90;;;;;;5099983;28;20253;-82
2021/05/05 05:08:51;;;;;;;0.50;0.50;;;7.10;99.90;;;;;;5100676;28;20200;-82
2021/05/05 05:11:17;;;;;;;1.30;1.20;;;7.20;99.90;;;;;;5100063;28;20216;-82
2021/05/05 05:13:44;;;;;;;1.10;1.00;;;7.20;99.90;;;;;;5099931;28;20228;-82
2021/05/05 05:16:10;;;;;;;1.00;0.93;;;7.20;99.90;;;;;;5099318;28;20212;-83
2021/05/05 05:18:36;;;;;;;1.65;1.35;;;7.20;99.90;;;;;;5099386;28;20207;-83
2021/05/05 05:21:05;;;;;;;1.25;1.15;;;7.20;99.90;;;;;;5099192;28;20228;-81
2021/05/05 05:23:33;;;;;;;1.20;1.17;;;7.30;99.90;;;;;;5097615;28;20281;-82
2021/05/05 05:25:59;;;;;;;1.67;1.00;;;7.30;99.90;;;;;;5099606;28;20224;-82
2021/05/05 05:28:26;;;;;;;2.05;1.08;;;7.30;99.90;;;;;;5099245;28;20208;-82
2021/05/05 05:30:53;;;;;;;1.27;1.17;;;7.30;99.90;;;;;;5099444;28;20201;-81
2021/05/05 05:33:19;;;;;;;1.58;1.20;;;7.30;99.90;;;;;;5099546;28;20230;-82
2021/05/05 05:35:46;;;;;;;1.00;0.98;;;7.30;99.90;;;;;;5099595;28;20215;-82
2021/05/05 05:38:15;;;;;;;2.28;1.00;;;7.30;99.90;;;;;;5098730;28;20220;-82
2021/05/05 05:40:41;;;;;;;2.40;1.05;;;7.40;99.90;;;;;;5099952;28;20250;-82
2021/05/05 05:43:08;;;;;;;1.02;0.88;;;7.40;99.90;;;;;;5100490;28;20204;-83
2021/05/05 05:45:34;;;;;;;1.30;1.20;;;7.50;99.90;;;;;;5100145;28;20204;-82
2021/05/05 05:48:00;;;;;;;1.10;1.00;;;7.50;99.90;;;;;;5099858;28;20204;-82
2021/05/05 05:50:27;;;;;;;3.17;1.10;;;7.60;99.90;;;;;;5100541;28;20204;-82
2021/05/05 05:52:53;;;;;;;1.38;1.27;;;7.60;99.90;;;;;;5099177;28;20204;-81
2021/05/05 05:55:21;;;;;;;0.85;0.85;;;7.60;99.90;;;;;;5100321;28;20203;-82
2021/05/05 05:57:49;;;;;;;1.55;1.10;;;7.70;99.90;;;;;;5099800;28;20285;-81
2021/05/05 06:00:17;;;;;;;1.80;1.15;;;7.70;99.90;;;;;;5099299;28;20879;-82
2021/05/05 06:02:44;;;;;;;2.40;1.63;;;7.70;99.90;;;;;;5098770;28;20238;-83
2021/05/05 06:05:12;;;;;;;2.65;1.38;;;7.70;99.90;;;;;;5099501;28;20281;-83
2021/05/05 06:07:38;;;;;;;0.80;0.80;;;7.70;99.90;;;;;;5101626;28;20218;-83
2021/05/05 06:10:06;;;;;;;1.50;1.40;;;7.70;99.90;;;;;;5101767;28;20215;-83
2021/05/05 06:12:33;;;;;;;1.92;1.10;;;7.80;99.90;;;;;;5111140;28;20285;-82
2021/05/05 06:14:59;;;;;;;1.00;1.00;;;7.70;99.90;;;;;;5112334;28;20231;-81
2021/05/05 06:17:26;;;;;;;2.40;1.30;;;7.60;99.90;;;;;;5110432;28;20205;-81
2021/05/05 06:19:58;;;;;;;3.15;1.52;;;7.60;99.90;;;;;;5103754;28;20697;-83
2021/05/05 06:22:24;;;;;;;1.35;1.25;;;7.50;99.90;;;;;;5100796;28;20205;-83
2021/05/05 06:24:51;;;;;;;1.65;1.55;;;7.50;99.90;;;;;;5101521;28;20311;-83
2021/05/05 06:27:17;;;;;;;2.85;2.10;;;7.60;99.90;;;;;;5099755;28;20567;-82
2021/05/05 06:29:44;;;;;;;3.63;1.40;;;7.50;99.90;;;;;;5097998;28;20188;-83
2021/05/05 06:32:10;;;;;;;1.85;1.33;;;7.50;99.90;;;;;;5097753;28;20258;-83
2021/05/05 06:34:37;;;;;;;2.25;1.85;;;7.50;99.90;;;;;;5097934;28;20248;-83
2021/05/05 06:37:03;;;;;;;3.47;3.17;;;7.50;99.90;;;;;;5097484;28;20197;-83
2021/05/05 06:39:30;;;;;;;5.65;2.50;;;7.50;99.90;;;;;;5097042;28;20307;-83
2021/05/05 06:41:56;;;;;;;3.35;2.30;;;7.50;99.90;;;;;;5096888;28;20200;-82
2021/05/05 06:44:22;;;;;;;4.40;2.40;;;7.50;99.90;;;;;;5097120;28;20221;-83
2021/05/05 06:46:54;;;;;;;2.67;1.88;;;7.60;99.90;;;;;;5096273;28;20204;-83
2021/05/05 06:49:21;;;;;;;3.50;2.05;;;7.60;99.90;;;;;;5096830;28;20613;-83
2021/05/05 06:51:47;;;;;;;7.70;2.25;;;7.60;99.90;;;;;;5097045;28;20249;-83
2021/05/05 06:54:15;;;;;;;3.28;2.40;;;7.70;99.90;;;;;;5097146;28;20226;-83
2021/05/05 06:56:41;;;;;;;3.00;2.33;;;7.70;99.90;;;;;;5105116;28;20197;-85
2021/05/05 06:59:20;;;;;;;4.47;1.83;;;7.70;99.90;;;;;;5095443;28;20204;-86
2021/05/05 07:52:58;;;;;;;;;;;;;;;;;;;;;
2021/05/05 08:05:50;;;;;;;2.25;1.27;;;7.20;99.90;;;;;;4860216;29;20305;-81
2021/05/05 08:08:18;;;;;;;3.67;3.30;;;7.20;99.90;;;;;;4963303;28;20212;-81
2021/05/05 08:10:45;;;;;;;3.03;1.90;;;7.20;99.90;;;;;;5034680;28;20206;-80
2021/05/05 08:13:11;;;;;;;1.77;1.67;;;7.20;99.90;;;;;;5060801;28;20230;-81
2021/05/05 08:15:38;;;;;;;1.50;1.40;;;7.40;99.90;;;;;;5061626;28;20206;-81
2021/05/05 08:18:06;;;;;;;1.27;1.00;;;7.50;99.90;;;;;;5060870;28;20205;-80
2021/05/05 08:20:34;;;;;;;2.72;1.45;;;7.70;99.90;;;;;;5060589;28;20234;-81
2021/05/05 08:23:02;;;;;;;3.75;1.38;;;7.90;99.90;;;;;;5060154;28;20275;-81
2021/05/05 08:25:28;;;;;;;2.00;1.40;;;8.00;99.90;;;;;;5060597;28;20228;-82
2021/05/05 08:27:54;;;;;;;4.40;1.80;;;8.10;99.90;;;;;;5060563;28;20202;-81
2021/05/05 08:30:22;;;;;;;4.65;1.75;;;8.20;99.90;;;;;;5060332;28;20204;-81
2021/05/05 08:32:48;;;;;;;2.78;1.20;;;8.30;99.90;;;;;;5059718;28;20207;-81
2021/05/05 08:35:15;;;;;;;2.10;1.90;;;8.40;99.90;;;;;;5059815;28;20217;-80
2021/05/05 08:37:41;;;;;;;4.30;1.60;;;8.50;99.90;;;;;;5060278;28;20210;-81
2021/05/05 08:40:12;;;;;;;6.07;2.72;;;8.50;99.90;;;;;;5059490;28;20223;-81
2021/05/05 08:42:40;;;;;;;5.28;2.78;;;8.60;99.90;;;;;;5059837;28;20213;-81
2021/05/05 08:45:13;;;;;;;1.55;1.45;;;8.40;99.90;;;;;;5059361;28;20233;-81
2021/05/05 08:47:42;;;;;;;2.85;1.75;;;8.10;99.90;;;;;;5059765;28;20214;-81
2021/05/05 08:50:11;;;;;;;4.43;1.42;;;8.10;99.90;;;;;;5059993;28;20596;-82
2021/05/05 08:52:37;;;;;;;2.20;1.77;;;8.10;99.90;;;;;;5059788;28;20262;-81
2021/05/05 08:55:06;;;;;;;1.45;1.35;;;8.20;99.90;;;;;;5060410;28;20241;-81
2021/05/05 08:57:33;;;;;;;3.20;2.38;;;8.40;99.90;;;;;;5059882;28;20206;-79
2021/05/05 09:00:00;;;;;;;4.20;1.63;;;8.70;99.90;;;;;;5059694;28;20228;-81
2021/05/05 09:02:27;;;;;;;5.43;1.80;;;8.80;99.90;;;;;;5058998;28;20210;-81
2021/05/05 09:04:57;;;;;;;1.02;1.00;;;8.90;99.90;;;;;;5059170;28;20648;-81
2021/05/05 09:07:31;;;;;;;2.90;1.58;;;9.00;99.90;;;;;;5058671;28;20206;-80
2021/05/05 09:10:03;;;;;;;2.78;1.10;;;9.30;99.90;;;;;;5059018;28;20692;-80
2021/05/05 09:12:30;;;;;;;1.60;1.50;;;9.10;99.90;;;;;;5058526;28;20210;-80
2021/05/05 09:15:00;;;;;;;1.80;1.02;;;9.20;99.90;;;;;;5058382;28;20479;-80
2021/05/05 09:17:28;;;;;;;1.92;1.10;;;9.30;99.50;;;;;;5058667;28;20276;-80
2021/05/05 09:20:20;;;;;;;3.22;1.27;;;9.50;99.90;;;;;;5058172;28;20419;-80
2021/05/05 09:22:49;;;;;;;1.57;1.33;;;9.70;98.30;;;;;;5058208;28;20213;-80
2021/05/05 09:25:20;;;;;;;3.20;1.50;;;10.00;95.90;;;;;;5058530;28;20458;-80
2021/05/05 09:28:08;;;;;;;1.63;1.52;;;10.00;97.70;;;;;;5058759;28;20459;-79
2021/05/05 09:30:36;;;;;;;3.40;1.37;;;9.90;98.10;;;;;;5059029;28;20294;-79
2021/05/05 09:33:03;;;;;;;2.50;1.70;;;10.10;95.90;;;;;;5058346;28;20454;-80
2021/05/05 09:35:30;;;;;;;2.57;1.77;;;10.00;98.90;;;;;;5058769;28;20454;-79
2021/05/05 09:37:58;;;;;;;3.27;1.60;;;9.90;99.70;;;;;;5058471;28;20453;-80
2021/05/05 09:40:25;;;;;;;1.70;1.30;;;9.80;99.90;;;;;;5057908;28;20481;-80
2021/05/05 09:42:52;;;;;;;2.40;1.77;;;9.80;99.90;;;;;;5057958;28;20214;-80
2021/05/05 09:45:19;;;;;;;3.60;2.40;;;9.90;98.70;;;;;;5058059;28;20256;-80
2021/05/05 09:47:52;;;;;;;1.53;1.23;;;10.00;96.30;;;;;;5058604;28;20485;-80
2021/05/05 09:50:30;;;;;;;3.50;1.50;;;10.00;96.90;;;;;;5058147;28;20434;-80
2021/05/05 09:53:28;;;;;;;1.10;1.10;;;9.70;96.80;;;;;;5058311;28;20255;-80
2021/05/05 09:56:09;;;;;;;1.77;1.63;;;9.70;97.10;;;;;;4996126;28;20450;-80
2021/05/05 09:58:37;;;;;;;1.38;1.27;;;9.70;94.90;;;;;;5050387;28;20215;-79
2021/05/05 10:01:15;;;;;;;2.07;1.00;;;9.80;96.20;;;;;;5058424;28;20226;-80
2021/05/05 10:03:45;;;;;;;1.30;1.20;;;9.90;96.20;;;;;;5057626;28;20483;-80
2021/05/05 10:06:23;;;;;;;4.60;1.00;;;10.00;94.40;;;;;;5058311;28;20552;-80
2021/05/05 10:08:51;;;;;;;2.05;1.50;;;10.10;92.40;;;;;;5057550;28;20437;-80
2021/05/05 10:11:21;;;;;;;2.15;1.50;;;10.20;94.40;;;;;;5055373;28;20205;-81
2021/05/05 10:13:50;;;;;;;2.00;1.10;;;10.40;94.30;;;;;;5056782;28;20231;-81
2021/05/05 10:16:17;;;;;;;2.30;2.10;;;10.60;94.60;;;;;;5056987;28;20839;-80
2021/05/05 10:18:45;;;;;;;6.77;2.07;;;10.70;91.30;;;;;;5057172;28;20458;-81
2021/05/05 10:21:14;;;;;;;1.27;1.10;;;10.90;93.20;;;;;;5056567;28;20497;-81
2021/05/05 10:23:41;;;;;;;1.83;1.40;;;11.00;93.00;;;;;;5057186;28;20470;-79
2021/05/05 10:26:11;;;;;;;1.23;1.10;;;11.00;93.90;;;;;;5056281;28;20477;-79
2021/05/05 10:28:39;;;;;;;1.83;1.73;;;10.80;94.30;;;;;;5056668;28;20495;-79
2021/05/05 10:31:08;;;;;;;1.73;1.63;;;10.80;95.90;;;;;;5056292;28;20458;-80
2021/05/05 10:33:39;;;;;;;2.10;1.30;;;11.00;94.20;;;;;;5055792;28;20482;-79
2021/05/05 10:36:28;;;;;;;2.20;1.70;;;11.10;94.70;;;;;;5056157;28;20447;-80
2021/05/05 10:38:55;;;;;;;5.93;1.20;;;11.50;94.90;;;;;;5056629;28;20461;-79
2021/05/05 10:41:22;;;;;;;2.93;1.50;;;11.70;93.60;;;;;;5056405;28;20491;-79
2021/05/05 10:43:50;;;;;;;2.17;1.43;;;11.50;94.20;;;;;;5056348;28;20471;-79
2021/05/05 10:46:28;;;;;;;2.37;1.67;;;11.40;92.80;;;;;;5056238;28;20485;-78
2021/05/05 10:49:06;;;;;;;2.10;1.03;;;11.20;93.00;;;;;;5056154;28;20457;-78
2021/05/05 10:52:04;;;;;;;1.27;1.17;;;11.40;92.50;;;;;;5055871;28;20979;-79
2021/05/05 10:54:51;;;;;;;2.85;1.17;;;11.10;93.60;;;;;;5106981;22;21120;-87
2021/05/05 10:57:18;;;;;;;1.50;1.40;;;10.70;93.00;;;;;;5074284;28;20566;-86
2021/05/05 11:00:09;;;;;;;0.88;0.88;;;10.20;92.40;;;;;;5072617;28;20492;-89
2021/05/05 11:02:47;;;;;;;1.10;0.55;;;8.40;97.40;;;;;;5067462;28;20291;-86
2021/05/05 11:05:15;;;;;;;0.85;0.68;;;7.30;99.90;;;;;;5052128;28;20197;-84
2021/05/05 11:07:48;;;;;;;0.63;0.55;;;6.50;99.90;;;;;;5052597;28;20201;-85
2021/05/05 11:10:45;;;;;;;0.88;0.88;;;5.80;99.90;;;;;;5071423;28;20204;-88
2021/05/05 11:13:52;;;;;;;3.47;1.42;;;5.50;99.90;;;;;;5075765;28;20210;-85
2021/05/05 11:20:02;;;;;;;0.60;0.60;;;5.30;99.90;;;;;;5051907;28;20752;-88
2021/05/05 11:23:11;;;;;;;0.70;0.70;;;5.30;99.90;;;;;;5054947;28;20231;-85
2021/05/05 11:25:37;;;;;;;1.15;0.77;;;5.20;99.90;;;;;;5063250;28;20219;-85
2021/05/05 11:28:04;;;;;;;1.85;1.02;;;5.30;99.90;;;;;;5069360;28;20452;-85
2021/05/05 11:30:47;;;;;;;1.73;1.50;;;5.40;99.90;;;;;;5063327;28;20210;-85
2021/05/05 11:33:14;;;;;;;1.48;1.38;;;5.60;99.90;;;;;;5063129;28;20222;-85
2021/05/05 11:35:41;;;;;;;3.80;0.95;;;6.00;99.90;;;;;;5058654;28;20216;-85
2021/05/05 11:38:20;;;;;;;1.10;1.10;;;6.20;99.90;;;;;;5062607;28;20296;-85
2021/05/05 11:41:04;;;;;;;1.05;0.93;;;6.40;99.90;;;;;;5062453;28;20226;-84
2021/05/05 11:43:32;;;;;;;0.90;0.90;;;6.70;99.90;;;;;;5054030;28;20233;-86
2021/05/05 11:46:01;;;;;;;1.17;0.85;;;6.90;99.90;;;;;;5061730;28;20206;-84
2021/05/05 11:48:39;;;;;;;1.15;0.70;;;7.10;99.90;;;;;;5064044;28;20233;-83
2021/05/05 11:51:23;;;;;;;1.95;0.77;;;7.60;99.90;;;;;;5057891;28;20205;-90
2021/05/05 11:54:13;;;;;;;1.05;0.90;;;8.20;99.90;;;;;;5054299;28;20233;-88
2021/05/05 11:56:40;;;;;;;1.75;1.15;;;8.40;99.90;;;;;;5054655;28;20213;-88
2021/05/05 11:59:06;;;;;;;1.13;1.00;;;8.20;99.90;;;;;;5054695;28;20216;-88
2021/05/05 12:01:35;;;;;;;2.05;0.90;;;7.90;99.90;;;;;;5055192;28;20226;-88
2021/05/05 12:04:16;;;;;;;1.75;1.10;;;7.90;99.90;;;;;;5055159;28;20652;-86
2021/05/05 12:06:54;;;;;;;2.42;1.30;;;8.00;99.90;;;;;;5055011;28;20606;-88
2021/05/05 12:09:27;;;;;;;1.17;1.08;;;8.50;99.90;;;;;;5055273;28;20546;-86
2021/05/05 12:12:11;;;;;;;1.20;1.00;;;9.00;99.90;;;;;;5054898;28;20703;-87
2021/05/05 12:14:38;;;;;;;1.58;1.48;;;9.70;99.90;;;;;;5055422;28;20309;-86
2021/05/05 12:17:16;;;;;;;1.17;1.08;;;9.80;99.90;;;;;;5054918;28;20625;-87
2021/05/05 12:19:56;;;;;;;2.35;0.90;;;10.10;99.90;;;;;;5054920;28;20287;-88
2021/05/05 12:22:23;;;;;;;3.00;1.20;;;10.60;99.90;;;;;;5054682;28;20191;-86
2021/05/05 12:25:19;;;;;;;1.40;1.30;;;10.90;99.90;;;;;;5054438;28;20470;-85
2021/05/05 12:28:00;;;;;;;1.47;1.37;;;10.80;99.90;;;;;;5055236;28;20455;-85
2021/05/05 12:30:51;;;;;;;2.20;1.00;;;10.70;99.90;;;;;;5071315;28;20454;-87
2021/05/05 12:34:12;;;;;;;1.30;1.20;;;10.60;99.90;;;;;;5068880;28;20281;-85
2021/05/05 12:36:59;;;;;;;1.27;1.15;;;10.20;99.90;;;;;;5064463;28;20213;-86
2021/05/05 12:39:25;;;;;;;2.17;1.77;;;9.50;99.90;;;;;;5056996;28;20213;-85
2021/05/05 12:41:53;;;;;;;2.88;1.30;;;9.40;99.90;;;;;;5059280;28;20227;-85
2021/05/05 12:44:31;;;;;;;1.65;1.02;;;9.30;99.90;;;;;;5062691;28;20348;-85
2021/05/05 12:46:58;;;;;;;2.20;0.65;;;9.00;99.90;;;;;;5057925;28;20210;-87
2021/05/05 12:49:29;;;;;;;0.77;0.70;;;8.30;98.30;;;;;;5054040;28;20287;-87
2021/05/05 12:51:56;;;;;;;1.20;1.10;;;8.00;99.90;;;;;;5054139;28;20241;-87
2021/05/05 12:54:26;;;;;;;1.00;1.00;;;8.00;99.90;;;;;;5053650;28;20233;-88
2021/05/05 12:56:54;;;;;;;0.68;0.68;;;8.10;99.90;;;;;;5053859;28;20194;-88
2021/05/05 12:59:32;;;;;;;1.05;0.80;;;8.50;99.90;;;;;;5053962;28;20207;-86
2021/05/05 13:02:04;;;;;;;1.00;0.70;;;9.10;99.90;;;;;;5053662;28;20219;-88
2021/05/05 13:04:35;;;;;;;1.20;0.80;;;9.90;99.90;;;;;;5053981;28;20227;-90
2021/05/05 13:07:01;;;;;;;0.93;0.60;;;10.30;99.90;;;;;;5053941;28;20212;-89
2021/05/05 13:09:28;;;;;;;1.53;0.80;;;11.00;99.90;;;;;;5053587;28;20212;-86
2021/05/05 13:12:11;;;;;;;0.83;0.83;;;11.60;99.90;;;;;;5053697;28;20474;-87
2021/05/05 13:14:45;;;;;;;1.37;0.80;;;12.30;99.90;;;;;;5053821;28;20503;-89
2021/05/05 13:17:23;;;;;;;1.13;0.60;;;12.80;99.90;;;;;;5053731;28;20451;-88
2021/05/05 13:31:18;;;;;;;4.10;0.87;;;12.10;98.30;;;;;;5053813;28;20830;-85
2021/05/05 13:34:03;;;;;;;0.60;0.60;;;11.90;96.80;;;;;;5053957;28;20477;-87
2021/05/05 13:36:52;;;;;;;1.63;1.10;;;11.90;96.90;;;;;;5053094;28;21072;-88
2021/05/05 13:39:20;;;;;;;1.63;1.23;;;11.70;99.10;;;;;;5054194;28;20462;-90
2021/05/05 13:41:53;;;;;;;1.38;0.80;;;11.30;97.40;;;;;;5053609;28;20565;-90
2021/05/05 13:44:36;;;;;;;0.70;0.60;;;10.30;95.30;;;;;;5053067;28;20675;-87
2021/05/05 13:47:07;;;;;;;2.63;0.47;;;10.20;97.90;;;;;;5053777;28;20518;-85
2021/05/05 13:49:37;;;;;;;0.60;0.60;;;10.00;97.70;;;;;;5053024;28;20215;-86
2021/05/05 13:52:05;;;;;;;0.85;0.85;;;9.80;99.90;;;;;;5053678;28;20643;-87
2021/05/05 13:54:32;;;;;;;0.77;0.70;;;9.70;99.90;;;;;;5052521;28;20724;-86
2021/05/05 13:57:02;;;;;;;1.70;0.70;;;10.20;99.90;;;;;;5052838;28;20290;-86
2021/05/05 13:59:29;;;;;;;1.37;0.50;;;11.00;99.90;;;;;;5052908;28;20458;-86
2021/05/05 14:01:56;;;;;;;0.93;0.80;;;12.00;98.40;;;;;;5052349;28;20707;-87
2021/05/05 14:04:23;;;;;;;1.20;0.93;;;12.40;95.80;;;;;;5052296;28;20537;-85
2021/05/05 14:06:49;;;;;;;0.60;0.60;;;13.00;95.40;;;;;;5052660;28;20516;-85
2021/05/05 14:09:16;;;;;;;1.30;0.70;;;13.30;93.30;;;;;;5054557;28;20712;-86
2021/05/05 14:11:42;;;;;;;1.20;1.07;;;13.70;91.90;;;;;;5053871;28;20455;-86
2021/05/05 14:14:09;;;;;;;0.80;0.80;;;13.70;89.60;;;;;;5052193;28;20479;-85
2021/05/05 14:16:36;;;;;;;1.57;1.03;;;14.10;91.10;;;;;;5052539;28;20481;-86
2021/05/05 14:19:03;;;;;;;1.37;1.27;;;14.20;89.20;;;;;;5052126;28;20544;-85
2021/05/05 14:21:30;;;;;;;0.70;0.70;;;14.10;88.50;;;;;;5055374;28;20498;-84
2021/05/05 14:23:56;;;;;;;4.07;1.17;;;14.40;89.90;;;;;;5058096;28;20484;-85
2021/05/05 14:26:23;;;;;;;1.27;0.90;;;14.80;85.60;;;;;;5052367;28;20514;-86
2021/05/05 14:28:50;;;;;;;0.77;0.77;;;14.70;80.80;;;;;;5052138;28;20933;-85
2021/05/05 14:31:16;;;;;;;1.00;0.90;;;13.80;79.80;;;;;;5052326;28;20476;-84
2021/05/05 14:33:45;;;;;;;1.53;0.97;;;14.10;83.50;;;;;;5051129;28;20476;-84
2021/05/05 14:36:16;;;;;;;1.90;0.60;;;14.50;82.70;;;;;;5052080;28;20494;-86
2021/05/05 14:42:50;;;;;;;1.37;1.27;;;15.40;79.00;;;;;;5016905;28;20440;-87
2021/05/05 14:49:41;;;;;;;;;;;;;;;;;;;;;
2021/05/05 14:56:36;;;;;;;;;;;;;;;;;;;;;